Time;durP1;ratioP1;P1;durP2;ratioP2;P2;SDS_P1;SDS_P2;PMS_P1;PMS_P2;Temp;Humidity;BMP_temperature;BMP_pressure;BME280_temperature;BME280_humidity;BME280_pressure;Samples;Min_cycle;Max_cycle;Signal;HPM_P1;HPM_P2
2022/03/22 00:02:23;;;;;;;;;40.25;31.75;;;;;8.79;77.30;102985.22;5075411;28;11556;-69
2022/03/22 00:04:50;;;;;;;;;34.75;30.00;;;;;8.80;77.30;102989.66;5066973;28;11545;-69
2022/03/22 00:07:17;;;;;;;;;31.50;26.75;;;;;8.78;77.21;102994.31;5051397;28;11188;-69
2022/03/22 00:09:43;;;;;;;;;29.50;24.50;;;;;8.76;77.28;102990.03;5049791;28;11830;-69
2022/03/22 00:12:10;;;;;;;;;34.00;27.00;;;;;8.70;77.53;102990.53;5078711;28;11147;-69
2022/03/22 00:14:36;;;;;;;;;37.50;33.50;;;;;8.64;77.69;102989.16;5073185;28;11505;-69
2022/03/22 00:17:23;;;;;;;;;32.75;28.25;;;;;8.63;78.25;102991.00;5083852;28;11613;-69
2022/03/22 00:19:55;;;;;;;;;36.25;32.50;;;;;8.62;77.77;102991.13;5070593;28;11200;-69
2022/03/22 00:22:22;;;;;;;;;36.75;32.00;;;;;8.58;77.82;102990.53;5065953;28;11394;-70
2022/03/22 00:24:48;;;;;;;;;32.50;27.75;;;;;8.54;77.88;102986.34;5049625;28;12041;-69
2022/03/22 00:27:15;;;;;;;;;44.75;36.50;;;;;8.52;78.01;102992.88;5049551;28;11411;-69
2022/03/22 00:29:42;;;;;;;;;33.00;29.25;;;;;8.51;78.12;102985.75;5066042;28;11618;-69
2022/03/22 00:32:08;;;;;;;;;32.75;27.00;;;;;8.53;78.14;102991.88;5078743;28;11488;-70
2022/03/22 00:34:44;;;;;;;;;42.75;33.75;;;;;8.55;78.06;102987.22;5069520;28;11555;-69
2022/03/22 00:37:14;;;;;;;;;31.00;27.25;;;;;8.52;78.15;102991.03;5070838;28;11509;-71
2022/03/22 00:39:42;;;;;;;;;37.25;31.75;;;;;8.53;78.25;102990.03;5086147;28;11139;-69
2022/03/22 00:42:10;;;;;;;;;41.25;33.50;;;;;8.50;78.42;102989.44;5069242;28;11584;-70
2022/03/22 00:44:38;;;;;;;;;29.50;24.75;;;;;8.43;78.25;102989.06;5070562;28;11595;-69
2022/03/22 00:47:08;;;;;;;;;39.00;32.75;;;;;8.40;78.40;103000.09;5070104;28;11297;-69
2022/03/22 00:49:36;;;;;;;;;34.50;30.25;;;;;8.37;78.20;102994.94;5086173;28;11488;-70
2022/03/22 00:52:04;;;;;;;;;32.75;26.00;;;;;8.37;78.13;102994.06;5069826;28;11203;-70
2022/03/22 00:54:33;;;;;;;;;41.25;37.00;;;;;8.39;78.41;102992.97;5082876;28;11215;-71
2022/03/22 00:56:59;;;;;;;;;48.25;32.50;;;;;8.36;78.13;102992.34;5072649;28;11568;-70
2022/03/22 01:02:11;;;;;;;;;43.25;32.00;;;;;8.30;78.66;102990.97;5074886;28;11167;-71
2022/03/22 01:04:38;;;;;;;;;33.25;33.25;;;;;8.30;78.84;102991.84;5076248;28;11526;-69
2022/03/22 01:07:04;;;;;;;;;39.00;34.00;;;;;8.28;78.81;102991.09;5050212;28;11521;-69
2022/03/22 01:09:31;;;;;;;;;36.50;32.75;;;;;8.29;79.44;102989.25;5050347;28;11638;-70
2022/03/22 01:11:57;;;;;;;;;42.50;35.25;;;;;8.24;79.54;102994.16;5067214;28;11573;-71
2022/03/22 01:14:28;;;;;;;;;36.75;34.50;;;;;8.23;79.19;102987.06;5070128;28;11578;-69
2022/03/22 01:16:55;;;;;;;;;36.50;30.25;;;;;8.21;79.44;102989.88;5068838;28;11678;-69
2022/03/22 01:19:27;;;;;;;;;47.25;39.50;;;;;8.26;79.46;102994.91;5070180;28;11501;-69
2022/03/22 01:21:54;;;;;;;;;37.00;31.75;;;;;8.26;78.71;102987.66;5069184;28;11508;-70
2022/03/22 01:24:21;;;;;;;;;41.50;33.75;;;;;8.17;78.68;102982.97;5081737;28;11579;-68
2022/03/22 01:26:48;;;;;;;;;42.50;36.00;;;;;8.16;79.01;102977.69;5092996;28;11513;-70
2022/03/22 01:29:14;;;;;;;;;41.50;33.75;;;;;8.12;79.17;102981.63;5092476;28;11513;-70
2022/03/22 01:31:41;;;;;;;;;40.25;32.50;;;;;8.04;79.43;102984.94;5091754;28;11572;-69
2022/03/22 01:34:08;;;;;;;;;37.50;26.25;;;;;8.05;79.62;102985.78;5095724;28;12248;-73
2022/03/22 01:36:34;;;;;;;;;40.00;33.25;;;;;8.06;79.92;102982.97;5080282;28;11461;-72
2022/03/22 01:39:01;;;;;;;;;43.50;37.25;;;;;8.03;80.16;102981.38;5101146;28;11559;-73
2022/03/22 01:41:27;;;;;;;;;39.75;36.25;;;;;8.01;80.15;102980.63;5103986;28;11488;-73
2022/03/22 01:43:54;;;;;;;;;32.75;28.00;;;;;7.99;79.99;102987.13;5088429;28;11492;-72
2022/03/22 01:46:23;;;;;;;;;32.25;27.75;;;;;8.01;80.21;102975.25;5080961;28;11499;-70
2022/03/22 01:48:51;;;;;;;;;40.00;32.50;;;;;8.02;80.44;102985.06;5081469;28;11610;-74
2022/03/22 01:51:21;;;;;;;;;45.00;35.75;;;;;8.03;80.16;102981.38;5059630;28;11637;-73
2022/03/22 01:53:49;;;;;;;;;41.25;36.00;;;;;7.98;80.24;102980.03;5082156;28;12273;-73
2022/03/22 01:56:17;;;;;;;;;44.00;37.75;;;;;7.95;80.07;102980.25;5061185;28;11527;-73
2022/03/22 01:58:43;;;;;;;;;45.50;36.75;;;;;7.96;80.15;102976.59;5079797;28;11511;-72
2022/03/22 02:06:44;;;;;;;;;40.75;34.75;;;;;7.86;80.63;102972.88;5080290;28;11479;-74
2022/03/22 02:09:10;;;;;;;;;39.50;35.75;;;;;7.83;80.64;102976.66;5079147;28;11532;-73
2022/03/22 02:11:38;;;;;;;;;38.00;31.50;;;;;7.86;80.17;102970.16;5080985;28;11586;-72
2022/03/22 02:14:05;;;;;;;;;35.75;34.25;;;;;7.76;79.99;102972.72;5097039;28;11544;-75
2022/03/22 02:16:32;;;;;;;;;40.00;35.75;;;;;7.75;80.65;102968.31;5078571;28;11493;-71
2022/03/22 02:18:59;;;;;;;;;40.50;34.75;;;;;7.81;80.58;102964.28;5085310;28;11507;-73
2022/03/22 02:21:30;;;;;;;;;42.00;35.75;;;;;7.73;79.91;102964.88;5096256;28;11492;-73
2022/03/22 02:23:57;;;;;;;;;41.75;37.00;;;;;7.69;79.98;102968.78;5100223;28;11477;-73
2022/03/22 02:26:26;;;;;;;;;28.50;23.00;;;;;7.66;80.66;102971.69;5099793;28;11500;-69
2022/03/22 02:28:53;;;;;;;;;35.25;35.25;;;;;7.66;80.71;102964.47;5080888;28;11559;-73
2022/03/22 02:31:21;;;;;;;;;40.25;38.00;;;;;7.67;80.74;102966.19;5083318;28;11581;-73
2022/03/22 02:33:48;;;;;;;;;42.25;37.25;;;;;7.64;80.61;102966.44;5082069;28;11524;-73
2022/03/22 02:36:15;;;;;;;;;45.00;33.50;;;;;7.61;81.10;102961.28;5067520;28;11640;-72
2022/03/22 02:38:43;;;;;;;;;42.75;38.25;;;;;7.68;80.85;102961.66;5089750;28;11597;-73
2022/03/22 02:41:18;;;;;;;;;37.00;34.50;;;;;7.59;80.71;102968.63;5089905;28;11512;-73
2022/03/22 02:43:46;;;;;;;;;42.50;40.00;;;;;7.62;80.88;102962.13;5078736;28;11485;-73
2022/03/22 02:46:14;;;;;;;;;45.50;33.25;;;;;7.59;80.78;102965.94;5085248;28;11467;-73
2022/03/22 02:48:41;;;;;;;;;46.75;37.75;;;;;7.56;81.08;102965.31;5078217;28;11524;-72
2022/03/22 02:51:09;;;;;;;;;43.25;33.00;;;;;7.64;81.24;102958.34;5075580;28;11562;-73
2022/03/22 02:53:35;;;;;;;;;34.50;30.00;;;;;7.55;80.41;102972.53;5076986;28;11508;-72
2022/03/22 02:56:02;;;;;;;;;38.25;31.25;;;;;7.56;80.94;102968.00;5093177;28;11545;-72
2022/03/22 02:58:29;;;;;;;;;45.75;38.75;;;;;7.52;80.98;102964.69;5075535;28;11589;-73
2022/03/22 03:00:56;;;;;;;;;47.75;39.25;;;;;7.55;80.88;102963.59;5075296;28;11718;-72
2022/03/22 03:03:23;;;;;;;;;35.75;29.50;;;;;7.54;81.06;102967.25;5063549;28;11559;-72
2022/03/22 03:05:50;;;;;;;;;45.50;40.50;;;;;7.56;80.90;102960.78;5076244;28;11641;-73
2022/03/22 03:08:18;;;;;;;;;51.50;40.50;;;;;7.53;81.06;102958.31;5075977;28;11489;-72
2022/03/22 03:10:45;;;;;;;;;36.75;34.00;;;;;7.50;81.32;102965.78;5076368;28;11590;-73
2022/03/22 03:13:13;;;;;;;;;52.75;40.75;;;;;7.46;81.14;102967.00;5078171;28;12257;-73
2022/03/22 03:15:39;;;;;;;;;49.75;41.75;;;;;7.49;81.05;102958.69;5098925;28;11574;-73
2022/03/22 03:18:06;;;;;;;;;42.25;37.50;;;;;7.47;80.87;102960.63;5076437;28;11566;-74
2022/03/22 03:20:33;;;;;;;;;41.50;33.50;;;;;7.44;81.45;102959.03;5078280;28;11510;-73
2022/03/22 03:22:59;;;;;;;;;46.75;38.25;;;;;7.40;81.45;102971.00;5090041;28;11517;-72
2022/03/22 03:25:26;;;;;;;;;37.75;34.75;;;;;7.35;81.84;102965.09;5079488;28;11509;-72
2022/03/22 03:27:53;;;;;;;;;43.00;38.25;;;;;7.36;82.08;102970.38;5080873;28;11502;-72
2022/03/22 03:30:19;;;;;;;;;40.50;37.50;;;;;7.31;81.52;102969.84;5080490;28;11502;-72
2022/03/22 03:32:46;;;;;;;;;51.75;39.50;;;;;7.28;81.53;102970.09;5079374;28;11590;-74
2022/03/22 03:35:12;;;;;;;;;54.25;43.75;;;;;7.29;81.86;102960.19;5056152;28;11625;-73
2022/03/22 03:37:43;;;;;;;;;50.00;41.00;;;;;7.29;81.63;102968.25;5072549;28;11618;-74
2022/03/22 03:40:10;;;;;;;;;41.00;32.00;;;;;7.21;81.87;102973.38;5064517;28;11600;-74
2022/03/22 03:42:42;;;;;;;;;42.25;37.25;;;;;7.26;82.63;102963.97;5082831;28;11530;-73
2022/03/22 03:47:58;;;;;;;;;51.00;41.50;;;;;7.24;82.24;102971.31;5095783;28;11512;-72
2022/03/22 03:50:26;;;;;;;;;34.75;25.25;;;;;7.18;82.20;102969.03;5081388;28;11501;-73
2022/03/22 03:52:52;;;;;;;;;34.00;29.00;;;;;7.15;82.51;102971.13;5096164;28;11488;-72
2022/03/22 03:55:20;;;;;;;;;48.50;39.50;;;;;7.16;82.75;102971.00;5079521;28;11485;-73
2022/03/22 03:57:48;;;;;;;;;43.25;38.50;;;;;7.17;82.66;102971.84;5095370;28;11552;-72
2022/03/22 04:00:15;;;;;;;;;45.00;35.25;;;;;7.16;82.46;102979.06;5079856;28;11513;-73
2022/03/22 04:02:42;;;;;;;;;42.00;35.75;;;;;7.16;82.22;102970.13;5079846;28;11618;-73
2022/03/22 04:05:09;;;;;;;;;34.00;29.75;;;;;7.13;82.37;102973.06;5080011;28;11577;-73
2022/03/22 04:07:36;;;;;;;;;53.00;39.50;;;;;7.14;82.29;102977.47;5068803;28;11497;-73
2022/03/22 04:10:03;;;;;;;;;36.50;28.75;;;;;7.06;82.03;102983.44;5075959;28;11625;-71
2022/03/22 04:12:31;;;;;;;;;54.75;41.50;;;;;7.05;81.85;102974.50;5086882;28;11557;-73
2022/03/22 04:14:57;;;;;;;;;49.50;42.50;;;;;7.07;81.98;102982.47;5111124;28;11617;-72
2022/03/22 04:17:24;;;;;;;;;41.50;37.75;;;;;7.07;82.11;102987.84;5114953;28;11574;-72
2022/03/22 04:19:50;;;;;;;;;48.00;38.25;;;;;7.04;81.89;102980.00;5076923;28;11576;-69
2022/03/22 04:22:18;;;;;;;;;33.75;28.50;;;;;7.04;82.08;102988.09;5099977;28;11561;-71
2022/03/22 04:24:45;;;;;;;;;45.25;40.25;;;;;7.05;82.38;102976.34;5048820;28;11502;-73
2022/03/22 04:32:42;;;;;;;;;49.50;37.00;;;;;6.94;82.25;102987.91;5083938;28;11522;-71
2022/03/22 04:35:13;;;;;;;;;46.00;40.00;;;;;6.96;82.84;102993.19;5078521;28;11521;-71
2022/03/22 04:37:41;;;;;;;;;40.25;35.00;;;;;7.01;82.79;102988.31;5095835;28;11569;-72
2022/03/22 04:40:08;;;;;;;;;36.75;30.50;;;;;6.99;82.68;102985.75;5094884;28;11514;-73
2022/03/22 04:42:36;;;;;;;;;41.75;37.25;;;;;7.02;83.00;102984.66;5083960;28;11521;-71
2022/03/22 04:45:03;;;;;;;;;40.00;36.50;;;;;7.00;82.83;102983.91;5079289;28;11683;-72
2022/03/22 04:47:32;;;;;;;;;30.75;29.00;;;;;6.94;82.94;102987.91;5068177;28;11541;-72
2022/03/22 04:49:59;;;;;;;;;36.50;33.75;;;;;6.99;83.03;102984.88;5098733;28;11519;-73
2022/03/22 04:57:56;;;;;;;;;41.00;34.00;;;;;7.11;83.26;102983.94;5094488;28;11495;-72
2022/03/22 05:00:22;;;;;;;;;44.75;38.75;;;;;7.06;83.09;102995.06;5076990;28;11559;-71
2022/03/22 05:02:48;;;;;;;;;44.50;40.50;;;;;7.12;83.60;102991.06;5084929;28;11505;-72
2022/03/22 05:05:15;;;;;;;;;41.50;34.75;;;;;7.15;83.34;102988.13;5059008;28;11575;-71
2022/03/22 05:07:42;;;;;;;;;31.50;28.25;;;;;7.16;83.57;102995.25;5066974;28;11497;-73
2022/03/22 05:10:09;;;;;;;;;39.75;35.50;;;;;7.19;83.57;102989.66;5078849;28;11492;-73
2022/03/22 05:12:39;;;;;;;;;40.75;33.75;;;;;7.21;83.48;102994.94;5066699;28;11531;-73
2022/03/22 05:15:07;;;;;;;;;32.50;29.25;;;;;7.16;82.99;102995.25;5059007;28;11520;-72
2022/03/22 05:17:33;;;;;;;;;44.75;40.50;;;;;7.17;82.64;102996.09;5058625;28;11505;-72
2022/03/22 05:19:59;;;;;;;;;30.25;26.25;;;;;7.16;82.75;103006.00;5072275;28;11517;-73
2022/03/22 05:22:26;;;;;;;;;40.00;36.00;;;;;7.10;82.62;103001.09;5083774;28;11467;-73
2022/03/22 05:24:53;;;;;;;;;37.50;28.00;;;;;7.06;82.71;103003.16;5099863;28;11481;-73
2022/03/22 05:27:20;;;;;;;;;40.00;32.50;;;;;7.08;82.98;103011.97;5082178;28;11469;-72
2022/03/22 05:29:47;;;;;;;;;40.00;38.25;;;;;7.12;83.33;102998.28;5104842;28;11522;-73
2022/03/22 05:32:13;;;;;;;;;31.50;29.50;;;;;7.06;83.14;103007.69;5078774;28;11524;-73
2022/03/22 05:34:40;;;;;;;;;36.50;33.50;;;;;7.07;83.49;103004.00;5079554;28;11504;-73
2022/03/22 05:37:06;;;;;;;;;45.75;37.50;;;;;7.11;83.71;103013.59;5079382;28;11499;-69
2022/03/22 05:39:33;;;;;;;;;38.00;31.50;;;;;7.10;84.24;103018.09;5058892;28;11501;-73
2022/03/22 05:41:59;;;;;;;;;32.75;29.25;;;;;7.11;84.20;103016.28;5079880;28;11519;-71
2022/03/22 05:44:26;;;;;;;;;37.25;35.50;;;;;7.10;84.48;103019.94;5075360;28;11502;-72
2022/03/22 05:46:55;;;;;;;;;42.00;37.00;;;;;7.16;83.96;103013.22;5060583;28;11584;-72
2022/03/22 05:49:21;;;;;;;;;45.25;36.75;;;;;7.21;84.22;103020.03;5060788;28;11516;-71
2022/03/22 05:51:48;;;;;;;;;35.00;30.25;;;;;7.26;84.37;103022.38;5078679;28;11512;-73
2022/03/22 05:54:14;;;;;;;;;36.00;29.00;;;;;7.26;83.53;103017.00;5086428;28;11499;-73
2022/03/22 05:56:41;;;;;;;;;29.25;27.25;;;;;7.21;83.99;103011.09;5076123;28;11480;-73
2022/03/22 05:59:07;;;;;;;;;32.25;29.00;;;;;7.22;83.64;103026.28;5096416;28;11479;-73
2022/03/22 06:01:34;;;;;;;;;30.25;28.00;;;;;7.21;83.49;103022.72;5084115;28;11572;-71
2022/03/22 06:04:01;;;;;;;;;34.00;32.00;;;;;7.24;83.87;103016.25;5078274;28;11476;-71
2022/03/22 06:06:28;;;;;;;;;32.25;31.00;;;;;7.32;83.52;103019.22;5055803;28;11512;-73
2022/03/22 06:08:54;;;;;;;;;39.00;35.00;;;;;7.44;83.32;103021.00;5041012;28;11540;-71
2022/03/22 06:11:21;;;;;;;;;34.75;34.25;;;;;7.47;83.83;103022.63;5072487;28;11485;-72
2022/03/22 06:13:48;;;;;;;;;44.75;34.75;;;;;7.52;83.24;103029.38;5097060;28;11570;-73
2022/03/22 06:16:16;;;;;;;;;38.50;34.50;;;;;7.58;83.00;103030.75;5063890;28;11521;-72
2022/03/22 06:18:42;;;;;;;;;38.25;35.25;;;;;7.67;82.75;103030.91;5076091;28;11564;-73
2022/03/22 06:21:09;;;;;;;;;35.25;31.50;;;;;7.79;82.49;103033.66;5092696;28;11537;-72
2022/03/22 06:23:36;;;;;;;;;31.00;26.50;;;;;7.91;81.59;103033.56;5087318;28;11509;-72
2022/03/22 06:26:02;;;;;;;;;24.50;22.75;;;;;8.02;81.46;103032.75;5066151;28;11469;-73
2022/03/22 06:28:29;;;;;;;;;34.50;32.50;;;;;8.12;80.91;103039.13;5065467;28;11475;-72
2022/03/22 06:30:55;;;;;;;;;37.75;30.50;;;;;8.25;80.26;103044.44;5076025;28;11509;-72
2022/03/22 06:33:24;;;;;;;;;31.75;22.50;;;;;8.41;80.00;103038.72;5083687;28;11600;-73
2022/03/22 06:35:50;;;;;;;;;28.00;25.25;;;;;8.69;79.14;103049.09;5085105;28;11495;-73
2022/03/22 06:38:17;;;;;;;;;33.25;28.50;;;;;8.93;78.18;103048.97;5082234;28;11255;-71
2022/03/22 06:40:46;;;;;;;;;35.25;29.00;;;;;9.02;77.30;103052.75;5080079;28;11588;-73
2022/03/22 06:43:16;;;;;;;;;30.75;29.25;;;;;9.25;76.24;103054.44;5085245;28;11488;-73
2022/03/22 06:45:45;;;;;;;;;33.75;29.75;;;;;9.55;74.95;103057.28;5094417;28;12298;-73
2022/03/22 06:48:12;;;;;;;;;29.75;26.75;;;;;9.72;73.79;103057.72;5078333;28;11473;-73
2022/03/22 06:50:39;;;;;;;;;31.75;29.00;;;;;9.72;73.07;103061.28;5076959;28;11125;-73
2022/03/22 06:53:07;;;;;;;;;38.75;36.50;;;;;9.82;72.82;103053.25;5077705;28;11212;-74
2022/03/22 06:55:35;;;;;;;;;29.50;26.00;;;;;10.04;72.10;103057.69;5072281;28;11521;-73
2022/03/22 06:58:03;;;;;;;;;27.00;24.00;;;;;10.12;71.63;103060.59;5067698;28;11167;-73
2022/03/22 07:00:31;;;;;;;;;39.75;35.50;;;;;9.97;71.33;103060.09;5071285;28;11035;-73
2022/03/22 07:03:02;;;;;;;;;41.50;34.75;;;;;10.01;71.54;103066.94;5070680;28;11490;-73
2022/03/22 07:05:30;;;;;;;;;34.50;34.00;;;;;10.14;71.68;103062.19;5071343;28;11503;-72
2022/03/22 07:07:56;;;;;;;;;30.75;28.75;;;;;10.24;71.06;103065.00;5072625;28;11356;-71
2022/03/22 07:10:24;;;;;;;;;37.75;32.50;;;;;10.29;70.95;103065.47;5067870;28;10983;-72
2022/03/22 07:12:51;;;;;;;;;42.00;36.00;;;;;10.36;70.50;103068.50;5066612;28;11136;-71
2022/03/22 07:15:33;;;;;;;;;38.25;37.25;;;;;10.47;69.84;103072.00;5069331;28;11523;-72
2022/03/22 07:18:00;;;;;;;;;36.25;33.00;;;;;10.58;69.22;103068.34;5064995;28;11051;-71
2022/03/22 07:20:28;;;;;;;;;42.75;37.50;;;;;10.61;68.99;103072.63;5070334;28;11139;-71
2022/03/22 07:23:01;;;;;;;;;29.25;29.25;;;;;10.81;69.17;103074.44;5079942;28;11630;-73
2022/03/22 07:25:29;;;;;;;;;60.25;45.25;;;;;10.76;68.77;103074.00;5092324;28;10997;-73
2022/03/22 07:27:56;;;;;;;;;47.00;39.75;;;;;10.90;67.88;103081.75;5077248;28;12310;-71
2022/03/22 07:30:23;;;;;;;;;49.50;41.75;;;;;10.99;67.53;103071.97;5071411;28;11507;-72
2022/03/22 07:32:49;;;;;;;;;56.00;45.25;;;;;10.95;67.13;103084.94;5089242;23;11509;-70
2022/03/22 07:35:19;;;;;;;;;46.50;42.75;;;;;10.87;66.33;103083.88;5040139;28;11598;-71
2022/03/22 07:37:46;;;;;;;;;53.50;42.00;;;;;11.13;66.20;103089.69;5052202;28;11468;-71
2022/03/22 07:40:13;;;;;;;;;46.25;40.25;;;;;11.24;66.29;103090.44;5071171;28;11616;-70
2022/03/22 07:42:39;;;;;;;;;45.25;42.00;;;;;11.24;65.96;103095.88;5056751;28;11578;-71
2022/03/22 07:45:08;;;;;;;;;53.75;43.50;;;;;11.34;65.77;103085.03;5050329;28;11171;-71
2022/03/22 07:47:35;;;;;;;;;42.50;41.25;;;;;11.46;64.51;103080.38;5050435;28;11475;-72
2022/03/22 07:53:05;;;;;;;;;41.75;40.50;;;;;11.61;64.16;103089.81;5050949;28;11283;-71
2022/03/22 07:55:35;;;;;;;;;52.75;41.75;;;;;11.84;64.17;103080.44;5050722;28;11591;-71
2022/03/22 07:58:03;;;;;;;;;53.25;42.25;;;;;11.88;63.71;103087.28;5044197;28;11585;-70
2022/03/22 08:00:30;;;;;;;;;41.25;37.25;;;;;12.15;63.14;103081.16;5050857;28;11471;-69
2022/03/22 08:03:01;;;;;;;;;46.75;38.25;;;;;12.29;62.28;103085.28;5049997;28;11485;-72
2022/03/22 08:05:28;;;;;;;;;37.00;37.00;;;;;12.31;61.84;103094.13;5051132;28;11468;-71
2022/03/22 08:07:55;;;;;;;;;50.75;41.75;;;;;12.40;61.59;103084.28;5051000;28;11067;-72
2022/03/22 08:10:33;;;;;;;;;40.00;32.75;;;;;12.71;60.72;103084.91;5049808;28;11595;-72
2022/03/22 08:13:00;;;;;;;;;38.50;34.50;;;;;12.88;60.08;103082.25;5050097;28;11001;-70
2022/03/22 08:15:27;;;;;;;;;46.00;38.00;;;;;13.00;59.22;103099.25;5050785;28;11184;-70
2022/03/22 08:17:54;;;;;;;;;50.25;39.75;;;;;13.11;59.05;103096.31;5042726;28;11105;-70
2022/03/22 08:20:22;;;;;;;;;51.00;41.00;;;;;13.39;58.70;103094.50;5046768;28;10815;-71
2022/03/22 08:22:51;;;;;;;;;37.25;35.75;;;;;13.46;58.00;103101.03;5045555;28;11165;-71
2022/03/22 08:25:43;;;;;;;;;51.00;42.25;;;;;13.50;56.88;103099.72;5047869;28;10969;-69
2022/03/22 08:28:11;;;;;;;;;45.50;40.50;;;;;13.76;57.41;103097.09;5047373;28;11033;-70
2022/03/22 08:30:39;;;;;;;;;45.50;36.75;;;;;13.83;56.89;103102.78;5045619;28;10903;-72
2022/03/22 08:33:07;;;;;;;;;56.25;42.25;;;;;13.56;56.42;103109.13;5043892;28;10737;-71
2022/03/22 08:35:35;;;;;;;;;52.00;43.00;;;;;13.62;56.35;103105.78;5047379;28;11228;-70
2022/03/22 08:38:02;;;;;;;;;46.25;40.25;;;;;13.88;56.44;103105.91;5046432;28;10952;-70
2022/03/22 08:40:29;;;;;;;;;49.50;41.75;;;;;13.95;56.03;103108.88;5044388;28;11043;-71
2022/03/22 08:42:57;;;;;;;;;48.00;41.50;;;;;14.34;55.09;103112.09;5047513;28;10901;-71
2022/03/22 08:45:26;;;;;;;;;40.00;37.25;;;;;14.57;54.77;103109.75;5046079;28;10748;-71
2022/03/22 08:47:54;;;;;;;;;48.50;41.00;;;;;14.56;54.79;103111.59;5028964;28;10686;-71
2022/03/22 08:50:25;;;;;;;;;41.50;37.25;;;;;14.80;53.56;103110.91;5045695;28;10704;-71
2022/03/22 08:52:56;;;;;;;;;40.25;33.00;;;;;14.90;53.26;103116.28;5045091;28;11025;-71
2022/03/22 08:55:23;;;;;;;;;45.25;39.00;;;;;15.06;53.77;103109.00;5045431;28;10733;-71
2022/03/22 08:57:50;;;;;;;;;39.25;32.75;;;;;15.28;52.51;103113.03;5046470;28;10960;-71
2022/03/22 09:00:19;;;;;;;;;50.50;40.75;;;;;15.43;51.50;103117.88;5045786;28;10341;-72
2022/03/22 09:02:49;;;;;;;;;40.50;37.75;;;;;15.54;51.25;103114.84;5046600;28;10566;-70
2022/03/22 09:08:05;;;;;;;;;48.50;39.25;;;;;15.41;50.98;103118.06;5047445;28;10573;-71
2022/03/22 09:10:34;;;;;;;;;47.25;40.75;;;;;15.81;50.77;103114.59;5048045;28;10798;-71
2022/03/22 09:13:01;;;;;;;;;41.75;37.00;;;;;16.05;49.45;103112.91;5047276;28;10561;-72
2022/03/22 09:15:29;;;;;;;;;35.25;31.50;;;;;16.10;49.11;103114.09;5046655;28;10426;-71
2022/03/22 09:17:57;;;;;;;;;42.25;37.75;;;;;16.13;49.29;103111.06;5028071;28;10504;-70
2022/03/22 09:20:25;;;;;;;;;41.25;37.00;;;;;16.19;48.28;103112.25;5048119;28;10369;-70
2022/03/22 09:22:53;;;;;;;;;43.50;38.75;;;;;16.25;48.94;103117.03;5047214;28;10431;-71
2022/03/22 09:25:22;;;;;;;;;38.75;33.50;;;;;16.24;48.04;103109.84;5046746;28;10600;-73
2022/03/22 09:27:49;;;;;;;;;43.50;39.50;;;;;16.43;48.23;103109.50;5047198;28;10355;-71
2022/03/22 09:30:18;;;;;;;;;41.75;36.75;;;;;16.61;47.67;103107.44;5046952;28;10426;-71
2022/03/22 09:32:44;;;;;;;;;36.75;34.50;;;;;16.87;46.71;103107.25;5046513;28;10332;-69
2022/03/22 09:35:13;;;;;;;;;36.75;36.25;;;;;16.95;47.23;103114.56;5030022;28;10158;-70
2022/03/22 09:37:42;;;;;;;;;38.25;35.75;;;;;17.24;46.05;103108.47;5030602;28;10183;-70
2022/03/22 09:40:10;;;;;;;;;33.50;32.00;;;;;17.19;45.30;103113.63;5046782;28;10255;-70
2022/03/22 09:42:42;;;;;;;;;29.25;26.50;;;;;17.31;45.47;103105.88;5045992;28;10097;-69
2022/03/22 09:45:10;;;;;;;;;35.50;31.25;;;;;17.38;44.75;103105.00;5048934;28;9837;-70
2022/03/22 09:47:37;;;;;;;;;37.00;33.50;;;;;17.45;44.33;103103.25;5051346;28;9902;-70
2022/03/22 09:50:06;;;;;;;;;39.50;34.50;;;;;17.37;45.06;103107.91;5050947;28;9776;-70
2022/03/22 09:52:34;;;;;;;;;34.75;34.25;;;;;17.57;45.17;103100.94;5049752;28;9765;-69
2022/03/22 09:55:01;;;;;;;;;30.75;23.50;;;;;17.81;45.19;103102.72;5050809;28;10021;-68
2022/03/22 09:57:28;;;;;;;;;33.00;30.50;;;;;17.72;44.37;103104.66;5051253;28;9588;-70
2022/03/22 09:59:54;;;;;;;;;33.50;32.50;;;;;17.75;43.35;103106.19;5049096;28;9797;-70
2022/03/22 10:02:28;;;;;;;;;36.25;32.25;;;;;17.82;43.58;103093.44;5026595;28;9775;-70
2022/03/22 10:04:55;;;;;;;;;41.00;36.00;;;;;17.79;43.33;103097.41;5049880;28;9998;-70
2022/03/22 10:07:23;;;;;;;;;38.00;29.00;;;;;17.68;43.68;103097.84;5050737;28;9915;-70
2022/03/22 10:10:02;;;;;;;;;35.25;31.75;;;;;17.88;43.73;103091.91;5051099;28;9765;-71
2022/03/22 10:12:29;;;;;;;;;33.50;30.50;;;;;17.93;43.30;103084.81;5050468;28;9685;-71
2022/03/22 10:15:09;;;;;;;;;33.75;32.75;;;;;18.03;42.40;103081.81;5046517;28;9621;-71
2022/03/22 10:17:35;;;;;;;;;33.50;28.75;;;;;18.10;42.11;103083.66;5045114;28;9693;-70
2022/03/22 10:20:07;;;;;;;;;26.75;26.75;;;;;18.21;42.10;103081.50;5047132;28;9761;-71
2022/03/22 10:22:36;;;;;;;;;30.00;28.50;;;;;18.32;41.68;103086.53;5049613;28;9546;-70
2022/03/22 10:25:04;;;;;;;;;23.25;22.25;;;;;18.34;41.50;103087.19;5050599;28;9697;-71
2022/03/22 10:27:37;;;;;;;;;33.25;25.50;;;;;18.26;42.46;103090.03;5046449;28;9556;-70
2022/03/22 10:30:23;;;;;;;;;34.50;33.50;;;;;18.50;43.26;103086.22;5050207;28;9490;-71
2022/03/22 10:32:51;;;;;;;;;36.25;32.75;;;;;18.41;42.06;103093.69;5045761;28;10426;-71
2022/03/22 10:35:36;;;;;;;;;34.25;31.50;;;;;18.44;42.28;103082.31;5050396;28;9554;-71
2022/03/22 10:38:09;;;;;;;;;37.75;33.50;;;;;18.47;42.10;103087.44;5042400;28;9523;-71
2022/03/22 10:40:40;;;;;;;;;42.00;37.25;;;;;18.34;42.28;103084.47;5050637;28;9641;-71
2022/03/22 10:43:09;;;;;;;;;32.50;29.50;;;;;18.55;41.86;103086.50;5049664;28;9904;-70
2022/03/22 10:45:47;;;;;;;;;33.25;30.25;;;;;18.51;41.49;103080.53;5051007;28;9523;-71
2022/03/22 10:48:19;;;;;;;;;36.50;36.00;;;;;18.66;41.17;103086.09;5050858;28;9723;-70
2022/03/22 10:50:47;;;;;;;;;31.67;29.00;;;;;18.73;41.49;103078.78;5049124;28;9613;-71
2022/03/22 10:53:16;;;;;;;;;33.00;30.00;;;;;18.74;40.59;103078.59;5045673;28;10278;-71
2022/03/22 10:55:44;;;;;;;;;34.50;34.00;;;;;18.71;40.16;103078.13;5049697;28;9390;-69
2022/03/22 10:58:18;;;;;;;;;32.00;27.00;;;;;18.85;41.26;103076.44;5054221;28;9707;-69
2022/03/22 11:00:46;;;;;;;;;26.67;24.33;;;;;18.96;40.35;103082.31;5015701;28;9442;-70
2022/03/22 11:03:15;;;;;;;;;34.75;29.75;;;;;18.94;40.63;103078.03;5049805;28;9400;-69
2022/03/22 11:05:55;;;;;;;;;34.00;30.50;;;;;18.97;40.15;103080.41;5049402;28;9399;-71
2022/03/22 11:08:23;;;;;;;;;25.33;23.67;;;;;19.05;40.34;103085.78;5050639;28;9537;-71
2022/03/22 11:10:54;;;;;;;;;28.33;25.33;;;;;19.25;39.87;103086.06;5049509;28;9343;-68
2022/03/22 11:13:24;;;;;;;;;29.00;26.00;;;;;19.19;39.46;103079.44;5045543;28;9251;-71
2022/03/22 11:15:52;;;;;;;;;32.50;29.00;;;;;19.19;39.21;103082.19;5046115;28;9297;-71
2022/03/22 11:18:20;;;;;;;;;24.00;24.00;;;;;19.42;39.13;103090.28;5048564;28;9601;-71
2022/03/22 11:21:02;;;;;;;;;34.75;32.00;;;;;19.19;38.26;103082.19;5032623;28;9152;-72
2022/03/22 11:23:31;;;;;;;;;32.67;29.00;;;;;19.21;38.54;103074.59;5040920;28;9450;-69
2022/03/22 11:26:12;;;;;;;;;32.33;28.33;;;;;19.27;38.18;103068.34;5038092;28;9257;-71
2022/03/22 11:28:41;;;;;;;;;27.33;25.33;;;;;19.43;38.50;103077.41;5043211;28;9293;-70
2022/03/22 11:31:09;;;;;;;;;29.33;27.33;;;;;19.34;37.58;103071.19;5032731;28;10022;-71
2022/03/22 11:36:28;;;;;;;;;44.25;38.75;;;;;19.15;40.97;103080.88;5032173;28;9172;-72
2022/03/22 11:39:01;;;;;;;;;52.00;42.50;;;;;18.82;42.31;103076.81;5049446;28;9968;-72
2022/03/22 11:44:36;;;;;;;;;45.00;37.00;;;;;18.68;42.98;103071.13;5050563;28;9890;-71
2022/03/22 11:47:16;;;;;;;;;38.75;36.50;;;;;18.80;42.78;103073.38;5050331;28;10809;-72
2022/03/22 11:49:51;;;;;;;;;39.25;31.50;;;;;19.06;42.46;103074.63;5050056;28;9578;-71
2022/03/22 11:52:19;;;;;;;;;43.00;34.75;;;;;19.14;42.56;103075.56;5048375;28;9794;-70
2022/03/22 11:55:05;;;;;;;;;37.00;33.25;;;;;19.11;42.63;103079.56;5048605;28;9718;-70